Time;durP1;ratioP1;P1;durP2;ratioP2;P2;SDS_P1;SDS_P2;PMS_P1;PMS_P2;Temp;Humidity;BMP_temperature;BMP_pressure;BME280_temperature;BME280_humidity;BME280_pressure;Samples;Min_cycle;Max_cycle;Signal;HPM_P1;HPM_P2
2023/09/17 00:00:37;;;;;;;;;16.67;12.67;;;;;22.09;66.09;100719.25;5066463;28;45292;-68
2023/09/17 00:03:03;;;;;;;;;13.33;11.67;;;;;22.00;66.38;100711.66;5062956;27;45425;-69
2023/09/17 00:05:31;;;;;;;;;13.33;12.33;;;;;22.05;66.96;100722.13;5077110;28;45611;-68
2023/09/17 00:07:57;;;;;;;;;14.67;14.33;;;;;21.93;66.64;100713.75;5076565;27;45464;-69
2023/09/17 00:10:23;;;;;;;;;14.67;14.67;;;;;21.96;66.95;100721.59;5072907;27;45507;-69
2023/09/17 00:12:53;;;;;;;;;12.67;11.67;;;;;21.89;67.18;100716.63;5067010;27;45610;-68
2023/09/17 00:15:19;;;;;;;;;19.67;17.00;;;;;21.87;66.96;100707.81;5066415;28;45982;-69
2023/09/17 00:17:45;;;;;;;;;17.33;14.33;;;;;21.92;67.06;100717.34;5063994;28;45303;-68
2023/09/17 00:20:11;;;;;;;;;16.00;15.67;;;;;21.87;67.14;100713.16;5076577;28;45543;-70
2023/09/17 00:22:37;;;;;;;;;18.00;16.33;;;;;21.85;67.28;100715.88;5071797;27;45318;-69
2023/09/17 00:25:28;;;;;;;;;18.33;17.00;;;;;21.73;67.62;100701.28;5069427;28;45573;-72
2023/09/17 00:28:13;;;;;;;;;13.00;12.00;;;;;21.73;67.81;100703.97;5060813;27;45775;-72
2023/09/17 00:30:39;;;;;;;;;16.33;15.33;;;;;21.69;67.75;100698.84;5065240;28;45615;-68
2023/09/17 00:33:05;;;;;;;;;13.67;12.33;;;;;21.73;67.68;100703.09;5077467;27;45620;-68
2023/09/17 00:35:30;;;;;;;;;14.00;12.67;;;;;21.85;67.28;100712.34;5065854;28;47380;-70
2023/09/17 00:37:56;;;;;;;;;16.33;15.00;;;;;21.83;67.60;100711.56;5074506;28;45636;-69
2023/09/17 00:40:24;;;;;;;;;19.00;15.00;;;;;21.78;67.71;100707.31;5077336;28;45435;-68
2023/09/17 00:42:50;;;;;;;;;16.00;13.67;;;;;21.79;67.74;100713.50;5066653;28;45536;-69
2023/09/17 00:45:16;;;;;;;;;17.33;14.33;;;;;21.69;67.89;100706.84;5063470;28;46084;-70
2023/09/17 00:47:41;;;;;;;;;19.33;15.67;;;;;21.71;67.90;100715.63;5075451;27;45523;-69
2023/09/17 00:50:10;;;;;;;;;14.67;12.33;;;;;21.64;67.71;100701.75;5076642;27;45616;-70
2023/09/17 00:52:36;;;;;;;;;17.67;14.00;;;;;21.69;68.30;100717.50;5062728;27;45810;-69
2023/09/17 00:55:03;;;;;;;;;13.67;13.33;;;;;21.57;68.47;100714.47;5076730;28;46244;-69
2023/09/17 00:57:30;;;;;;;;;12.33;11.67;;;;;21.51;68.77;100706.72;5076501;28;45416;-68
2023/09/17 00:59:57;;;;;;;;;16.00;14.00;;;;;21.54;68.65;100711.91;5076350;28;45502;-70
2023/09/17 01:02:26;;;;;;;;;13.33;12.67;;;;;21.49;68.83;100718.38;5075575;28;45410;-69
2023/09/17 01:04:53;;;;;;;;;13.00;12.33;;;;;21.44;68.90;100720.38;5076271;27;46087;-69
2023/09/17 01:07:20;;;;;;;;;14.00;14.00;;;;;21.42;68.66;100714.25;5071463;27;45608;-69
2023/09/17 01:09:46;;;;;;;;;12.00;9.67;;;;;21.48;68.70;100714.00;5067075;27;45475;-68
2023/09/17 01:12:12;;;;;;;;;14.00;13.00;;;;;21.47;68.85;100709.59;5062504;27;45555;-69
2023/09/17 01:14:38;;;;;;;;;12.33;12.33;;;;;21.39;68.55;100696.56;5071968;27;45556;-69
2023/09/17 01:17:07;;;;;;;;;14.33;12.33;;;;;21.45;68.51;100704.34;5067257;28;45405;-69
2023/09/17 01:19:34;;;;;;;;;16.00;13.00;;;;;21.43;68.67;100698.22;5056190;27;45434;-69
2023/09/17 01:22:09;;;;;;;;;14.67;12.33;;;;;21.47;68.87;100713.13;5088261;27;45384;-69
2023/09/17 01:24:48;;;;;;;;;11.67;11.67;;;;;21.44;68.85;100704.41;5056405;28;46435;-69
2023/09/17 01:27:18;;;;;;;;;14.00;13.00;;;;;21.31;68.83;100682.75;5055639;27;45551;-69
2023/09/17 01:29:47;;;;;;;;;13.00;12.00;;;;;21.24;68.98;100679.47;5056551;27;45505;-69
2023/09/17 01:32:14;;;;;;;;;10.33;10.33;;;;;20.98;69.10;100648.63;5055879;27;45565;-69
2023/09/17 01:34:43;;;;;;;;;14.00;10.00;;;;;21.38;69.13;100711.72;5057147;27;45369;-69
2023/09/17 01:37:16;;;;;;;;;13.00;13.00;;;;;21.36;69.03;100704.72;5057073;28;45542;-69
2023/09/17 01:40:05;;;;;;;;;12.00;12.00;;;;;21.36;69.00;100707.38;5056907;28;45401;-70
2023/09/17 01:42:31;;;;;;;;;15.00;13.00;;;;;21.29;69.17;100700.59;5055815;27;46261;-71
2023/09/17 01:44:59;;;;;;;;;13.67;12.00;;;;;21.02;68.70;100649.34;5067000;28;45405;-69
2023/09/17 01:47:26;;;;;;;;;14.33;12.67;;;;;21.37;69.01;100711.75;5075776;28;45472;-70
2023/09/17 01:49:55;;;;;;;;;13.33;11.33;;;;;21.32;69.08;100708.44;5070866;28;45517;-69
2023/09/17 01:52:25;;;;;;;;;10.67;10.67;;;;;21.29;69.29;100706.78;5071885;28;45450;-68
2023/09/17 01:54:50;;;;;;;;;16.00;13.67;;;;;21.20;69.85;100708.97;5075503;27;46181;-69
2023/09/17 01:57:16;;;;;;;;;14.33;13.67;;;;;21.08;69.80;100702.34;5075636;28;45281;-69
2023/09/17 01:59:41;;;;;;;;;13.67;12.33;;;;;21.22;69.62;100715.09;5080728;28;45784;-68
2023/09/17 02:02:07;;;;;;;;;14.00;10.33;;;;;21.04;69.68;100680.31;5079842;27;45453;-69
2023/09/17 02:04:32;;;;;;;;;16.00;14.67;;;;;21.08;69.68;100683.72;5077607;28;47968;-69
2023/09/17 02:06:58;;;;;;;;;17.67;14.00;;;;;21.11;69.60;100676.44;5079092;27;45528;-69
2023/09/17 02:09:23;;;;;;;;;7.33;7.33;;;;;21.27;69.46;100710.44;5080092;28;45414;-69
2023/09/17 02:11:50;;;;;;;;;13.67;12.67;;;;;21.21;69.56;100681.38;5079343;28;45411;-69
2023/09/17 02:14:16;;;;;;;;;12.33;11.00;;;;;21.26;69.14;100687.38;5078597;28;45790;-69
2023/09/17 02:16:43;;;;;;;;;16.00;12.33;;;;;21.23;69.23;100668.88;5079654;28;45288;-69
2023/09/17 02:19:09;;;;;;;;;12.67;12.67;;;;;21.22;69.21;100681.34;5079445;27;45452;-69
2023/09/17 02:21:35;;;;;;;;;15.00;11.00;;;;;21.29;69.36;100690.78;5079031;27;45281;-68
2023/09/17 02:24:01;;;;;;;;;15.33;14.00;;;;;21.18;69.77;100699.22;5079100;27;45385;-70
2023/09/17 02:26:30;;;;;;;;;12.00;10.33;;;;;21.14;69.82;100687.00;5079575;28;45237;-68
2023/09/17 02:28:56;;;;;;;;;12.33;10.33;;;;;21.15;69.77;100674.53;5080604;28;45444;-70
2023/09/17 02:31:22;;;;;;;;;10.67;10.67;;;;;21.22;69.67;100684.00;5078534;28;45476;-70
2023/09/17 02:33:48;;;;;;;;;12.00;10.00;;;;;21.06;69.41;100650.97;5073839;27;45518;-69
2023/09/17 02:36:13;;;;;;;;;14.33;9.67;;;;;21.12;69.63;100659.56;5061464;28;45445;-69
2023/09/17 02:38:41;;;;;;;;;12.67;11.67;;;;;21.20;69.45;100674.34;5058852;27;45459;-69
2023/09/17 02:41:07;;;;;;;;;10.67;9.67;;;;;21.27;69.03;100676.66;5065723;27;45450;-69
2023/09/17 02:43:36;;;;;;;;;14.33;9.00;;;;;21.24;69.42;100686.59;5071585;27;46864;-69
2023/09/17 02:46:05;;;;;;;;;13.00;10.67;;;;;21.22;69.31;100678.66;5064219;28;45404;-69
2023/09/17 02:48:34;;;;;;;;;12.67;10.67;;;;;21.23;69.41;100677.72;5078816;28;45519;-69
2023/09/17 02:51:02;;;;;;;;;12.33;10.67;;;;;21.21;69.17;100676.06;5078643;28;45584;-70
2023/09/17 02:53:28;;;;;;;;;10.00;9.67;;;;;21.23;69.25;100676.88;5078629;28;45424;-71
2023/09/17 02:55:58;;;;;;;;;8.33;7.00;;;;;21.17;69.39;100684.19;5076891;28;45755;-69
2023/09/17 02:58:24;;;;;;;;;12.67;11.33;;;;;20.95;69.69;100664.72;5079822;28;45458;-71
2023/09/17 03:00:49;;;;;;;;;11.00;8.67;;;;;21.05;70.13;100691.84;5076860;27;45540;-72
2023/09/17 03:03:15;;;;;;;;;10.67;8.33;;;;;20.88;70.21;100672.13;5057814;28;46095;-72
2023/09/17 03:05:44;;;;;;;;;8.33;8.33;;;;;20.86;69.87;100651.81;5069304;28;45538;-70
2023/09/17 03:08:09;;;;;;;;;12.00;10.67;;;;;20.85;70.00;100647.41;5065950;28;45466;-69
2023/09/17 03:10:42;;;;;;;;;9.33;9.33;;;;;20.94;70.23;100678.97;5075726;27;45424;-70
2023/09/17 03:13:12;;;;;;;;;14.00;9.67;;;;;20.88;70.38;100671.22;5077784;27;46490;-69
2023/09/17 03:15:38;;;;;;;;;10.33;10.33;;;;;20.88;70.52;100676.56;5079507;28;45429;-69
2023/09/17 03:18:04;;;;;;;;;13.00;10.00;;;;;20.74;70.27;100640.75;5079051;27;45475;-68
2023/09/17 03:20:35;;;;;;;;;9.00;7.00;;;;;20.99;70.00;100676.97;5078192;27;45487;-69
2023/09/17 03:23:03;;;;;;;;;8.33;8.33;;;;;21.07;69.73;100669.53;5077600;28;45402;-68
2023/09/17 03:25:31;;;;;;;;;7.33;7.33;;;;;21.07;69.60;100664.22;5078668;27;45352;-69
2023/09/17 03:27:56;;;;;;;;;13.67;9.00;;;;;21.05;69.68;100666.06;5094955;27;45412;-69
2023/09/17 03:30:23;;;;;;;;;10.00;6.00;;;;;21.01;69.91;100675.13;5079620;27;45350;-69
2023/09/17 03:32:49;;;;;;;;;11.33;10.00;;;;;20.89;70.13;100665.84;5077161;27;47893;-69
2023/09/17 03:35:14;;;;;;;;;9.33;8.33;;;;;20.95;70.16;100670.03;5078281;27;45387;-70
2023/09/17 03:37:40;;;;;;;;;11.33;10.33;;;;;20.95;70.08;100670.94;5078332;27;45794;-68
2023/09/17 03:40:11;;;;;;;;;10.00;10.00;;;;;20.93;70.31;100666.59;5078080;27;45419;-69
2023/09/17 03:42:41;;;;;;;;;12.67;9.67;;;;;20.90;70.26;100656.91;5071568;27;46879;-70
2023/09/17 03:45:12;;;;;;;;;9.67;9.67;;;;;20.81;70.37;100656.44;5070793;28;45513;-69
2023/09/17 03:47:45;;;;;;;;;11.67;8.00;;;;;20.66;70.93;100656.16;5079056;27;45517;-69
2023/09/17 03:50:14;;;;;;;;;6.33;6.33;;;;;20.64;70.96;100660.66;5076873;28;45416;-69
2023/09/17 03:52:42;;;;;;;;;10.67;10.00;;;;;20.70;71.38;100670.22;5076783;28;46240;-69
2023/09/17 03:55:09;;;;;;;;;12.67;12.67;;;;;20.54;71.36;100645.97;5077450;28;45488;-68
2023/09/17 03:57:36;;;;;;;;;16.00;10.00;;;;;20.66;71.49;100660.63;5077488;28;45791;-70
2023/09/17 04:00:07;;;;;;;;;10.00;9.33;;;;;20.68;71.40;100654.28;5073167;28;45486;-69
2023/09/17 04:02:36;;;;;;;;;10.67;10.67;;;;;20.68;71.50;100656.97;5073043;28;45333;-69
2023/09/17 04:05:13;;;;;;;;;10.67;10.67;;;;;20.66;70.95;100656.16;5077373;28;45318;-69
2023/09/17 04:07:44;;;;;;;;;13.33;12.67;;;;;20.83;70.92;100670.56;5078351;28;45312;-69
2023/09/17 04:10:12;;;;;;;;;12.00;11.00;;;;;20.79;71.19;100661.84;5076093;28;45554;-70
2023/09/17 04:12:39;;;;;;;;;10.00;10.00;;;;;20.66;70.88;100629.53;5076850;28;45635;-70
2023/09/17 04:15:10;;;;;;;;;10.00;9.00;;;;;20.88;70.84;100653.47;5073142;28;45516;-69
2023/09/17 04:17:36;;;;;;;;;11.00;11.00;;;;;20.88;70.57;100664.13;5077363;27;45406;-68
2023/09/17 04:20:10;;;;;;;;;13.67;11.33;;;;;20.83;70.80;100667.91;5077137;28;45321;-69
2023/09/17 04:22:36;;;;;;;;;12.33;10.00;;;;;20.87;70.92;100666.84;5076757;28;45483;-68
2023/09/17 04:25:01;;;;;;;;;10.33;10.00;;;;;20.77;70.75;100638.91;5077024;28;45400;-67
2023/09/17 04:27:27;;;;;;;;;10.00;10.00;;;;;20.78;70.86;100659.25;5066981;28;45513;-68
2023/09/17 04:29:52;;;;;;;;;13.00;8.00;;;;;20.83;71.04;100670.56;5074911;28;45467;-67
2023/09/17 04:32:18;;;;;;;;;14.00;12.00;;;;;20.78;71.01;100661.91;5077475;28;45967;-68
2023/09/17 04:34:44;;;;;;;;;12.00;11.00;;;;;20.74;71.21;100662.03;5077339;27;45437;-66
2023/09/17 04:37:10;;;;;;;;;12.67;12.33;;;;;20.78;71.19;100660.09;5077461;28;45434;-68
2023/09/17 04:39:36;;;;;;;;;11.33;9.67;;;;;20.77;70.89;100652.19;5078838;27;45319;-67
2023/09/17 04:42:02;;;;;;;;;14.00;11.67;;;;;20.77;70.79;100652.19;5077206;28;45517;-67
2023/09/17 04:44:28;;;;;;;;;11.33;10.33;;;;;20.83;70.89;100659.91;5065958;28;45449;-68
2023/09/17 04:46:54;;;;;;;;;11.33;9.67;;;;;20.82;70.81;100647.53;5064843;27;45488;-68
2023/09/17 04:49:19;;;;;;;;;12.00;10.67;;;;;20.90;70.62;100640.94;5058200;27;45396;-69
2023/09/17 04:51:45;;;;;;;;;10.33;9.00;;;;;20.83;71.00;100647.47;5056611;27;46225;-68
2023/09/17 04:54:11;;;;;;;;;10.33;9.33;;;;;20.91;70.65;100658.66;5057051;27;45516;-68
2023/09/17 04:56:37;;;;;;;;;10.00;10.00;;;;;20.84;70.30;100648.34;5056570;28;45339;-68
2023/09/17 04:59:04;;;;;;;;;11.00;10.00;;;;;20.70;70.60;100633.81;5057973;27;45291;-69
2023/09/17 05:01:30;;;;;;;;;11.00;9.33;;;;;20.82;70.49;100659.06;5058409;27;47693;-67
2023/09/17 05:03:57;;;;;;;;;12.33;10.00;;;;;20.79;70.51;100663.66;5065497;28;45524;-68
2023/09/17 05:06:22;;;;;;;;;10.00;9.00;;;;;20.82;70.51;100668.84;5074302;27;45588;-68
2023/09/17 05:08:48;;;;;;;;;12.00;11.00;;;;;20.75;70.73;100677.06;5065262;27;45398;-67
2023/09/17 05:11:13;;;;;;;;;9.67;9.00;;;;;20.66;70.81;100658.81;5069648;27;46486;-68
2023/09/17 05:13:39;;;;;;;;;8.33;8.33;;;;;20.65;70.66;100659.75;5066529;27;45370;-67
2023/09/17 05:16:06;;;;;;;;;9.67;8.33;;;;;20.60;70.75;100651.09;5070888;27;45503;-68
2023/09/17 05:18:32;;;;;;;;;12.00;10.33;;;;;20.62;71.05;100661.66;5059029;27;45447;-67
2023/09/17 05:20:57;;;;;;;;;12.00;9.00;;;;;20.36;71.28;100633.41;5071357;27;46233;-68
2023/09/17 05:23:23;;;;;;;;;10.00;7.67;;;;;20.52;71.53;100664.69;5057806;27;45442;-70
2023/09/17 05:25:49;;;;;;;;;10.33;10.33;;;;;20.55;71.20;100661.03;5071924;28;45473;-68
2023/09/17 05:28:15;;;;;;;;;8.67;8.67;;;;;20.59;71.36;100672.44;5088802;27;45788;-69
2023/09/17 05:30:41;;;;;;;;;11.00;9.33;;;;;20.58;71.35;100676.91;5059347;27;45965;-68
2023/09/17 05:33:07;;;;;;;;;8.00;8.00;;;;;20.54;71.22;100662.81;5066321;27;45433;-69
2023/09/17 05:35:34;;;;;;;;;9.00;8.00;;;;;20.46;71.34;100656.09;5071569;27;45451;-66
2023/09/17 05:38:00;;;;;;;;;10.00;9.00;;;;;20.50;71.62;100673.63;5076523;27;45553;-67
2023/09/17 05:40:27;;;;;;;;;9.67;8.00;;;;;20.33;71.87;100650.38;5060416;27;45429;-68
2023/09/17 05:42:52;;;;;;;;;9.67;9.00;;;;;20.43;72.39;100657.06;5059445;27;45826;-67
2023/09/17 05:45:18;;;;;;;;;9.00;7.67;;;;;20.30;72.18;100639.88;5073793;28;45326;-68
2023/09/17 05:47:44;;;;;;;;;7.67;7.67;;;;;20.36;72.33;100650.28;5093812;27;45535;-68
2023/09/17 05:50:10;;;;;;;;;9.67;9.00;;;;;20.16;72.32;100618.28;5064979;27;45491;-68
2023/09/17 05:52:36;;;;;;;;;10.00;9.00;;;;;20.39;72.06;100657.25;5060527;27;45317;-69
2023/09/17 05:55:04;;;;;;;;;9.33;9.33;;;;;20.26;72.09;100640.91;5060364;27;45425;-68
2023/09/17 05:57:30;;;;;;;;;11.67;8.00;;;;;20.31;72.39;100657.53;5060656;27;45565;-69
2023/09/17 05:59:56;;;;;;;;;9.67;7.67;;;;;20.33;72.48;100653.91;5058658;27;46446;-67
2023/09/17 06:02:22;;;;;;;;;10.00;7.67;;;;;20.29;72.33;100648.78;5067669;27;45539;-67
2023/09/17 06:04:52;;;;;;;;;8.33;8.33;;;;;20.41;72.19;100660.72;5066011;27;45562;-68
2023/09/17 06:07:19;;;;;;;;;10.33;8.67;;;;;20.48;72.05;100656.91;5060296;27;45548;-66
2023/09/17 06:09:44;;;;;;;;;9.00;9.00;;;;;20.45;71.88;100636.56;5058455;27;45373;-69
2023/09/17 06:12:10;;;;;;;;;9.00;9.00;;;;;20.56;71.31;100653.94;5058636;27;45922;-71
2023/09/17 06:14:39;;;;;;;;;10.00;8.00;;;;;20.60;71.50;100645.78;5058866;27;45379;-68
2023/09/17 06:17:05;;;;;;;;;9.33;8.00;;;;;20.63;71.35;100656.28;5065815;27;45494;-71
2023/09/17 06:19:33;;;;;;;;;7.33;7.00;;;;;20.48;71.21;100633.81;5058980;27;45337;-70
2023/09/17 06:21:59;;;;;;;;;7.00;6.67;;;;;20.56;70.97;100630.00;5074302;27;45473;-68
2023/09/17 06:24:25;;;;;;;;;7.67;7.67;;;;;20.66;70.62;100636.66;5058869;27;45398;-68
2023/09/17 06:26:51;;;;;;;;;13.67;11.67;;;;;20.85;70.76;100666.03;5058880;27;45492;-67
2023/09/17 06:29:18;;;;;;;;;10.67;9.33;;;;;20.85;70.57;100664.25;5057465;27;45417;-70
2023/09/17 06:31:46;;;;;;;;;8.33;8.33;;;;;20.89;70.24;100676.50;5058919;27;45348;-69
2023/09/17 06:34:12;;;;;;;;;11.00;8.00;;;;;20.87;69.26;100650.88;5060404;27;45441;-67
2023/09/17 06:36:38;;;;;;;;;7.00;7.00;;;;;20.87;70.01;100659.72;5058704;27;45505;-72
2023/09/17 06:39:06;;;;;;;;;11.33;9.00;;;;;20.81;70.21;100673.31;5066211;27;45413;-72
2023/09/17 06:41:32;;;;;;;;;11.00;11.00;;;;;20.58;70.60;100660.06;5071723;27;45409;-69
2023/09/17 06:43:58;;;;;;;;;7.00;6.33;;;;;20.49;71.02;100651.50;5069704;28;45353;-72
2023/09/17 06:46:25;;;;;;;;;13.00;8.00;;;;;20.63;70.83;100677.56;5074595;27;46209;-72
2023/09/17 06:48:50;;;;;;;;;13.67;9.33;;;;;20.55;71.14;100674.34;5076737;27;46015;-68
2023/09/17 06:51:16;;;;;;;;;8.33;7.67;;;;;20.53;71.44;100671.72;5063694;27;45852;-68
2023/09/17 06:53:42;;;;;;;;;10.67;8.00;;;;;20.44;71.57;100653.47;5063373;27;45417;-67
2023/09/17 06:56:08;;;;;;;;;9.00;9.00;;;;;20.43;71.17;100648.19;5090859;27;45508;-69
2023/09/17 06:58:35;;;;;;;;;8.67;5.67;;;;;20.53;71.12;100673.53;5057790;27;45686;-68
2023/09/17 07:01:00;;;;;;;;;10.00;8.33;;;;;20.46;71.25;100662.25;5058512;27;45520;-67
2023/09/17 07:03:26;;;;;;;;;6.67;6.67;;;;;20.43;71.26;100656.19;5059603;27;45390;-67
2023/09/17 07:05:52;;;;;;;;;11.00;7.67;;;;;20.47;70.68;100663.13;5064224;27;45618;-68
2023/09/17 07:08:18;;;;;;;;;11.67;9.00;;;;;20.51;70.71;100668.25;5060905;27;46255;-70
2023/09/17 07:10:44;;;;;;;;;9.00;8.33;;;;;20.56;70.60;100681.41;5058109;27;45559;-66
2023/09/17 07:13:11;;;;;;;;;9.00;7.67;;;;;20.52;71.33;100685.97;5058016;27;45280;-67
2023/09/17 07:15:37;;;;;;;;;8.33;7.67;;;;;20.46;71.40;100683.53;5064073;27;46661;-68
2023/09/17 07:18:03;;;;;;;;;10.33;8.33;;;;;20.49;71.15;100679.91;5058180;27;46166;-70
2023/09/17 07:20:28;;;;;;;;;8.67;8.00;;;;;20.41;71.19;100668.72;5059953;27;45871;-67
2023/09/17 07:22:54;;;;;;;;;6.00;5.67;;;;;20.46;71.06;100658.75;5058039;27;45329;-68
2023/09/17 07:25:20;;;;;;;;;8.33;8.33;;;;;20.45;71.36;100657.84;5057782;27;45411;-72
2023/09/17 07:27:46;;;;;;;;;9.00;7.00;;;;;20.47;71.36;100649.81;5057586;27;45507;-69
2023/09/17 07:30:12;;;;;;;;;3.67;3.67;;;;;20.50;71.33;100652.34;5063394;27;45230;-72
2023/09/17 07:32:38;;;;;;;;;10.00;7.67;;;;;20.46;71.01;100659.59;5061039;27;45391;-71
2023/09/17 07:35:04;;;;;;;;;7.33;7.33;;;;;20.57;71.23;100669.81;5057756;27;45541;-70
2023/09/17 07:37:30;;;;;;;;;11.33;7.67;;;;;20.55;71.04;100661.03;5068103;27;46625;-71
2023/09/17 07:39:58;;;;;;;;;7.67;7.67;;;;;20.58;70.85;100662.75;5062363;27;45177;-72
2023/09/17 07:42:23;;;;;;;;;6.33;6.33;;;;;20.59;70.78;100683.94;5057923;28;45418;-71
2023/09/17 07:44:49;;;;;;;;;9.33;7.33;;;;;20.65;70.66;100659.75;5068136;28;45333;-72
2023/09/17 07:47:15;;;;;;;;;8.67;7.00;;;;;20.85;70.21;100674.03;5077903;28;45829;-72
2023/09/17 07:49:40;;;;;;;;;11.67;8.33;;;;;20.89;70.08;100672.97;5077826;28;45373;-71
2023/09/17 07:52:06;;;;;;;;;11.67;9.67;;;;;20.85;70.07;100672.22;5078946;28;46250;-72
2023/09/17 07:54:39;;;;;;;;;11.33;7.33;;;;;20.91;70.05;100674.66;5063577;28;45494;-71
2023/09/17 07:57:05;;;;;;;;;8.00;8.00;;;;;20.93;70.08;100666.59;5076970;27;46614;-71
2023/09/17 07:59:30;;;;;;;;;6.67;6.67;;;;;20.96;69.64;100664.66;5077492;28;45847;-72
2023/09/17 08:01:58;;;;;;;;;9.67;7.67;;;;;20.99;69.53;100653.00;5076594;28;45445;-71
2023/09/17 08:04:24;;;;;;;;;9.33;9.33;;;;;21.06;69.31;100656.28;5077983;28;45438;-71
2023/09/17 08:06:49;;;;;;;;;9.00;8.67;;;;;21.25;69.04;100678.53;5078777;27;45563;-70
2023/09/17 08:09:22;;;;;;;;;10.33;10.33;;;;;21.28;68.69;100670.38;5073761;28;45645;-72
2023/09/17 08:11:50;;;;;;;;;11.67;10.67;;;;;21.45;68.04;100688.38;5076953;27;45523;-70
2023/09/17 08:14:16;;;;;;;;;13.33;10.33;;;;;21.55;68.05;100691.47;5078248;27;45364;-70
2023/09/17 08:16:42;;;;;;;;;11.00;11.00;;;;;21.67;67.60;100690.94;5075936;27;47735;-70
2023/09/17 08:19:07;;;;;;;;;9.00;8.00;;;;;21.77;67.48;100697.56;5076664;28;45461;-71
2023/09/17 08:21:33;;;;;;;;;8.00;7.00;;;;;21.80;66.92;100673.44;5077258;27;45322;-72
2023/09/17 08:23:59;;;;;;;;;8.67;8.67;;;;;21.90;66.79;100675.69;5077902;27;45508;-70
2023/09/17 08:26:28;;;;;;;;;8.00;8.00;;;;;21.95;66.70;100666.53;5078119;28;45331;-72
2023/09/17 08:28:58;;;;;;;;;10.33;7.33;;;;;22.03;66.19;100650.19;5075802;28;45275;-71
2023/09/17 08:31:25;;;;;;;;;10.00;8.33;;;;;22.36;65.46;100661.06;5071020;27;45931;-70
2023/09/17 08:33:52;;;;;;;;;9.33;7.33;;;;;22.42;65.15;100663.47;5063409;27;45369;-70
2023/09/17 08:36:21;;;;;;;;;6.67;6.67;;;;;22.34;64.80;100641.59;5072605;27;46575;-70
2023/09/17 08:38:49;;;;;;;;;12.00;7.00;;;;;22.50;64.62;100664.91;5068802;28;45314;-68
2023/09/17 08:41:18;;;;;;;;;7.33;7.33;;;;;22.55;64.98;100668.19;5064242;28;45683;-70
2023/09/17 08:43:48;;;;;;;;;8.67;5.67;;;;;22.57;64.87;100675.19;5058278;28;45553;-68
2023/09/17 08:46:14;;;;;;;;;6.67;6.67;;;;;22.58;64.61;100682.25;5071781;28;45496;-69
2023/09/17 08:48:40;;;;;;;;;8.33;7.67;;;;;22.62;64.79;100675.81;5058634;27;45350;-70
2023/09/17 08:51:11;;;;;;;;;8.67;8.00;;;;;22.83;64.23;100678.38;5058610;27;45642;-71
2023/09/17 08:53:44;;;;;;;;;12.33;8.00;;;;;22.94;64.02;100667.16;5056554;28;45462;-69
2023/09/17 08:56:16;;;;;;;;;7.33;7.33;;;;;23.10;63.24;100664.59;5058687;28;45457;-71
2023/09/17 08:58:52;;;;;;;;;9.00;7.67;;;;;23.21;62.83;100672.94;5058327;28;45438;-70
2023/09/17 09:01:20;;;;;;;;;11.33;9.67;;;;;23.19;62.70;100666.81;5072465;27;45551;-70
2023/09/17 09:03:46;;;;;;;;;7.33;7.33;;;;;23.12;62.58;100671.59;5076893;27;45353;-71
2023/09/17 09:06:15;;;;;;;;;9.67;8.67;;;;;22.96;63.32;100655.44;5071930;27;46074;-70
2023/09/17 09:08:42;;;;;;;;;7.33;6.33;;;;;23.14;63.20;100669.72;5069422;27;45447;-69
2023/09/17 09:11:08;;;;;;;;;8.67;7.00;;;;;23.20;62.97;100666.69;5080208;27;45448;-69
2023/09/17 09:13:37;;;;;;;;;8.67;8.00;;;;;23.17;62.07;100624.13;5072324;27;45254;-72
2023/09/17 09:16:04;;;;;;;;;8.00;8.00;;;;;23.52;61.41;100653.47;5067497;27;46240;-69
2023/09/17 09:18:29;;;;;;;;;8.00;8.00;;;;;23.50;61.31;100632.16;5054921;27;45563;-72
2023/09/17 09:20:55;;;;;;;;;6.00;5.67;;;;;23.47;61.09;100618.13;5055377;27;45738;-72
2023/09/17 09:23:22;;;;;;;;;7.25;6.75;;;;;23.67;61.17;100628.56;5067362;27;45579;-71
2023/09/17 09:25:48;;;;;;;;;8.75;8.00;;;;;23.79;60.91;100647.63;5060302;28;46722;-75
2023/09/17 09:28:14;;;;;;;;;11.00;7.33;;;;;23.69;60.16;100639.19;5071793;27;45436;-70
2023/09/17 09:30:43;;;;;;;;;8.75;6.75;;;;;23.87;60.63;100651.59;5061915;27;45387;-73
2023/09/17 09:33:09;;;;;;;;;13.33;10.33;;;;;23.59;60.78;100596.06;5075992;27;45468;-69
2023/09/17 09:35:34;;;;;;;;;9.67;8.33;;;;;24.02;60.45;100654.38;5072221;27;46056;-70
2023/09/17 09:38:01;;;;;;;;;8.25;7.25;;;;;24.15;59.46;100651.88;5061234;27;45354;-73
2023/09/17 09:40:27;;;;;;;;;8.00;8.00;;;;;24.32;59.68;100660.69;5076546;27;45562;-71
2023/09/17 09:42:53;;;;;;;;;9.75;9.00;;;;;24.33;58.98;100632.09;5060708;28;45515;-72
2023/09/17 09:45:18;;;;;;;;;6.75;6.75;;;;;24.61;58.57;100654.66;5073504;28;45990;-70
2023/09/17 09:47:48;;;;;;;;;10.75;8.75;;;;;24.62;58.71;100626.91;5080238;28;45380;-72
2023/09/17 09:50:42;;;;;;;;;14.25;10.00;;;;;24.86;57.84;100622.78;5078638;28;45522;-70
2023/09/17 09:53:08;;;;;;;;;7.75;7.75;;;;;25.06;57.95;100629.66;5073383;28;46724;-70
2023/09/17 09:55:33;;;;;;;;;7.50;6.75;;;;;25.34;57.67;100626.19;5061281;27;45695;-71
2023/09/17 09:57:59;;;;;;;;;9.00;9.00;;;;;25.49;57.28;100604.75;5076430;27;45536;-70
2023/09/17 10:00:29;;;;;;;;;8.25;7.25;;;;;25.91;55.92;100625.34;5067832;27;45531;-71
2023/09/17 10:02:55;;;;;;;;;11.00;10.00;;;;;26.09;55.17;100611.69;5060459;28;45512;-70
2023/09/17 10:05:33;;;;;;;;;10.50;9.25;;;;;26.20;54.63;100595.75;5075355;27;45426;-69
2023/09/17 10:08:00;;;;;;;;;11.25;8.50;;;;;26.30;54.11;100587.94;5068008;27;45460;-70
2023/09/17 10:10:26;;;;;;;;;9.25;9.25;;;;;26.25;54.28;100568.59;5076383;27;45361;-69
2023/09/17 10:12:54;;;;;;;;;12.75;11.00;;;;;26.30;53.69;100580.75;5078378;27;45508;-71
2023/09/17 10:15:20;;;;;;;;;10.50;9.75;;;;;26.40;53.97;100589.91;5064297;27;45538;-69
2023/09/17 10:17:48;;;;;;;;;14.50;10.25;;;;;26.41;53.71;100593.44;5069575;27;45203;-70
2023/09/17 10:20:15;;;;;;;;;12.00;11.50;;;;;26.31;53.59;100576.22;5075763;27;45485;-70
2023/09/17 10:22:42;;;;;;;;;12.50;12.00;;;;;26.42;54.14;100593.34;5080302;27;45523;-71
2023/09/17 10:25:09;;;;;;;;;9.25;8.50;;;;;26.35;53.90;100593.88;5068325;27;46627;-70
2023/09/17 10:27:36;;;;;;;;;11.00;8.50;;;;;26.30;54.21;100577.22;5071961;27;45585;-72
2023/09/17 10:30:04;;;;;;;;;14.00;12.00;;;;;26.12;54.10;100553.28;5059074;28;45338;-70
2023/09/17 10:32:34;;;;;;;;;12.00;10.75;;;;;26.29;53.68;100573.69;5069452;27;45403;-68
2023/09/17 10:35:02;;;;;;;;;14.00;11.00;;;;;26.01;54.52;100523.63;5072378;27;45621;-70
2023/09/17 10:37:31;;;;;;;;;11.25;10.75;;;;;26.11;54.36;100537.31;5078797;27;45447;-70
2023/09/17 10:39:57;;;;;;;;;12.00;11.00;;;;;26.13;54.44;100536.25;5078965;27;45457;-69
2023/09/17 10:42:25;;;;;;;;;11.75;11.00;;;;;26.13;54.31;100548.81;5064361;27;45439;-71
2023/09/17 10:44:55;;;;;;;;;11.00;9.75;;;;;26.16;54.57;100562.88;5060901;27;46507;-70
2023/09/17 10:47:23;;;;;;;;;11.00;9.00;;;;;26.16;54.69;100564.69;5072551;27;45452;-70
2023/09/17 10:49:49;;;;;;;;;7.50;7.50;;;;;26.06;55.17;100550.16;5060799;27;45338;-70
2023/09/17 10:52:15;;;;;;;;;9.00;7.50;;;;;25.97;55.51;100532.84;5065742;27;45359;-71
2023/09/17 10:54:40;;;;;;;;;9.50;9.50;;;;;26.02;55.35;100541.44;5078599;27;45496;-70
2023/09/17 10:57:30;;;;;;;;;7.00;7.00;;;;;26.05;55.24;100537.69;5077189;27;45383;-70
2023/09/17 10:59:59;;;;;;;;;12.25;11.00;;;;;26.03;54.98;100551.25;5074267;27;46148;-71
2023/09/17 11:02:28;;;;;;;;;13.25;9.50;;;;;25.77;55.47;100509.97;5066981;27;45512;-70
2023/09/17 11:04:55;;;;;;;;;8.50;7.75;;;;;26.00;55.44;100554.94;5059538;27;45481;-71
2023/09/17 11:07:21;;;;;;;;;8.25;8.25;;;;;26.04;56.33;100544.91;5058773;28;45781;-70
2023/09/17 11:09:48;;;;;;;;;7.25;7.25;;;;;25.94;55.29;100538.41;5078058;27;45523;-70
2023/09/17 11:12:14;;;;;;;;;8.25;8.25;;;;;25.98;55.39;100558.69;5077863;27;45358;-71
2023/09/17 11:14:40;;;;;;;;;10.50;9.00;;;;;25.95;55.67;100556.22;5078396;27;45238;-69
2023/09/17 11:17:09;;;;;;;;;14.75;12.25;;;;;25.80;55.45;100540.13;5077868;27;45440;-69